Time;durP1;ratioP1;P1;durP2;ratioP2;P2;SDS_P1;SDS_P2;PMS_P1;PMS_P2;Temp;Humidity;BMP_temperature;BMP_pressure;BME280_temperature;BME280_humidity;BME280_pressure;Samples;Min_cycle;Max_cycle;Signal;HPM_P1;HPM_P2
2021/04/22 00:02:36;;;;;;;7.30;6.70;;;;;;;8.47;73.15;99255.66;5014924;28;20224;-79
2021/04/22 00:05:36;;;;;;;7.33;6.53;;;;;;;8.49;72.93;99258.91;5028968;28;20225;-79
2021/04/22 00:08:42;;;;;;;7.53;6.83;;;;;;;8.53;72.88;99262.00;5050649;28;20232;-79
2021/04/22 00:11:42;;;;;;;6.77;6.20;;;;;;;8.58;72.49;99271.00;5082043;28;20235;-81
2021/04/22 00:14:26;;;;;;;8.60;6.77;;;;;;;8.56;72.89;99267.72;5048166;28;20251;-81
2021/04/22 00:17:19;;;;;;;7.07;6.10;;;;;;;8.54;72.22;99261.75;5034984;28;20225;-80
2021/04/22 00:20:15;;;;;;;6.87;6.17;;;;;;;8.48;72.45;99253.81;5083384;28;20225;-79
2021/04/22 00:23:22;;;;;;;7.40;6.70;;;;;;;8.46;72.32;99258.53;5080682;28;20228;-81
2021/04/22 00:26:23;;;;;;;6.97;6.37;;;;;;;8.40;72.64;99255.69;5068423;28;20311;-79
2021/04/22 00:29:17;;;;;;;8.37;6.73;;;;;;;8.39;72.66;99258.59;5068492;28;20229;-79
2021/04/22 00:32:08;;;;;;;7.20;6.50;;;;;;;8.46;72.37;99270.03;5055238;28;20221;-80
2021/04/22 00:35:05;;;;;;;7.50;6.10;;;;;;;8.40;72.51;99281.56;5062467;28;20237;-80
2021/04/22 00:38:14;;;;;;;6.97;6.33;;;;;;;8.36;72.75;99294.53;5063830;28;20249;-82
2021/04/22 00:41:05;;;;;;;6.67;6.07;;;;;;;8.21;73.36;99290.50;5061924;28;20229;-81
2021/04/22 00:44:12;;;;;;;7.73;6.93;;;;;;;8.10;73.62;99283.97;5069724;28;20220;-82
2021/04/22 00:47:26;;;;;;;7.73;7.00;;;;;;;8.10;74.09;99296.47;5080549;28;20231;-81
2021/04/22 00:50:27;;;;;;;7.40;6.40;;;;;;;8.00;74.59;99294.25;5069027;28;20299;-80
2021/04/22 00:53:29;;;;;;;7.23;6.53;;;;;;;7.92;74.45;99298.00;5067860;28;20224;-81
2021/04/22 00:56:26;;;;;;;8.53;7.27;;;;;;;7.80;74.98;99299.66;5080726;28;20221;-80
2021/04/22 00:59:20;;;;;;;7.20;6.50;;;;;;;7.70;75.18;99293.13;5074855;28;20224;-81
2021/04/22 01:02:24;;;;;;;7.27;6.57;;;;;;;7.68;75.40;99293.34;5067867;28;20254;-79
2021/04/22 01:05:32;;;;;;;7.17;6.40;;;;;;;7.76;76.00;99303.75;5030408;28;20229;-80
2021/04/22 01:08:32;;;;;;;7.93;7.13;;;;;;;7.73;76.21;99293.53;5035458;28;20234;-81
2021/04/22 01:11:29;;;;;;;8.27;6.87;;;;;;;7.75;75.49;99290.63;5054655;28;20261;-80
2021/04/22 01:14:25;;;;;;;6.87;6.27;;;;;;;7.77;75.46;99307.25;5054644;28;20220;-79
2021/04/22 01:17:24;;;;;;;6.10;5.60;;;;;;;7.79;75.41;99303.34;5069666;28;20238;-82
2021/04/22 01:20:41;;;;;;;7.03;6.43;;;;;;;7.82;74.85;99299.44;5082406;28;20224;-79
2021/04/22 01:23:41;;;;;;;7.00;6.30;;;;;;;7.76;75.70;99290.44;5067387;28;20219;-80
2021/04/22 01:26:35;;;;;;;6.93;6.23;;;;;;;7.81;75.42;99297.81;5068120;28;20255;-79
2021/04/22 01:29:37;;;;;;;6.30;5.70;;;;;;;7.69;75.72;99294.16;5068753;28;20243;-83
2021/04/22 01:32:32;;;;;;;6.73;6.13;;;;;;;7.76;75.82;99310.94;5065379;28;20248;-79
2021/04/22 01:35:29;;;;;;;6.67;6.07;;;;;;;7.65;75.89;99308.94;5034893;28;20603;-82
2021/04/22 01:38:17;;;;;;;8.13;6.83;;;;;;;7.60;76.24;99314.06;5080111;28;20227;-80
2021/04/22 01:41:12;;;;;;;7.47;6.40;;;;;;;7.53;76.70;99314.88;5068447;28;20195;-80
2021/04/22 01:44:00;;;;;;;7.13;6.47;;;;;;;7.43;76.63;99317.16;5052578;28;20236;-80
2021/04/22 01:47:12;;;;;;;7.53;6.80;;;;;;;7.39;76.93;99328.44;5068100;28;20320;-81
2021/04/22 01:50:08;;;;;;;7.67;6.97;;;;;;;7.33;77.53;99315.94;5073428;28;20561;-82
2021/04/22 01:53:16;;;;;;;8.57;7.40;;;;;;;7.24;77.88;99315.31;5086684;28;20228;-79
2021/04/22 01:56:08;;;;;;;7.00;6.30;;;;;;;7.30;76.72;99311.03;5051506;28;20229;-79
2021/04/22 01:59:25;;;;;;;7.63;6.83;;;;;;;7.25;76.77;99316.16;5052442;28;20524;-82
2021/04/22 02:02:24;;;;;;;6.93;6.23;;;;;;;7.26;76.76;99320.47;5066585;28;20326;-81
2021/04/22 02:05:24;;;;;;;7.30;6.60;;;;;;;7.19;76.76;99319.63;5033915;28;20240;-81
2021/04/22 02:08:25;;;;;;;8.37;7.57;;;;;;;7.15;76.93;99321.88;5065599;28;20233;-80
2021/04/22 02:11:23;;;;;;;7.43;6.73;;;;;;;7.12;77.05;99314.31;5086238;28;20229;-81
2021/04/22 02:14:15;;;;;;;7.20;6.53;;;;;;;7.03;77.20;99308.38;5070581;28;20221;-80
2021/04/22 02:17:09;;;;;;;8.40;7.10;;;;;;;7.00;77.10;99311.41;5056281;28;20229;-80
2021/04/22 02:20:41;;;;;;;7.63;6.90;;;;;;;7.00;77.57;99315.94;5070305;28;20228;-80
2021/04/22 02:23:42;;;;;;;7.63;6.93;;;;;;;6.88;77.63;99306.91;5067315;28;20251;-79
2021/04/22 02:26:40;;;;;;;8.00;7.13;;;;;;;6.85;78.21;99315.31;5051212;28;20252;-80
2021/04/22 02:29:35;;;;;;;8.40;7.10;;;;;;;6.82;77.49;99310.38;5069684;28;20289;-80
2021/04/22 02:32:40;;;;;;;7.97;7.27;;;;;;;6.87;77.67;99307.94;5070832;28;20219;-78
2021/04/22 02:35:50;;;;;;;8.50;7.70;;;;;;;6.85;78.25;99310.00;5086133;28;20231;-81
2021/04/22 02:38:52;;;;;;;8.97;8.07;;;;;;;6.83;78.07;99301.38;5086740;28;20221;-79
2021/04/22 02:41:42;;;;;;;10.60;7.90;;;;;;;6.89;78.12;99290.75;5084930;28;20234;-79
2021/04/22 02:44:23;;;;;;;9.40;8.50;;;;;;;6.96;77.34;99280.06;5069588;28;20693;-81
2021/04/22 02:47:13;;;;;;;9.47;8.47;;;;;;;7.03;77.24;99297.72;5050392;28;20230;-81
2021/04/22 02:49:55;;;;;;;10.47;9.30;;;;;;;7.11;77.09;99288.69;5068013;28;20222;-80
2021/04/22 02:53:13;;;;;;;10.13;9.13;;;;;;;7.09;77.00;99286.22;5071728;28;20232;-82
2021/04/22 02:55:57;;;;;;;10.43;9.07;;;;;;;7.26;76.76;99294.63;5067782;28;20252;-79
2021/04/22 02:58:42;;;;;;;10.13;8.87;;;;;;;7.20;76.69;99294.63;5068525;28;20226;-80
2021/04/22 03:01:37;;;;;;;10.50;9.13;;;;;;;7.16;76.73;99304.88;5054973;28;20220;-79
2021/04/22 03:04:36;;;;;;;9.77;8.33;;;;;;;7.04;76.88;99288.72;5085526;28;20288;-82
2021/04/22 03:07:29;;;;;;;9.07;7.80;;;;;;;7.00;77.30;99294.63;5064176;28;20226;-79
2021/04/22 03:10:27;;;;;;;8.67;7.83;;;;;;;6.98;77.10;99294.03;5035412;28;20236;-81
2021/04/22 03:13:26;;;;;;;9.00;8.10;;;;;;;6.92;77.68;99293.00;5051493;28;20232;-81
2021/04/22 03:16:23;;;;;;;7.87;7.07;;;;;;;6.89;77.60;99292.59;5049965;28;20225;-82
2021/04/22 03:19:15;;;;;;;8.63;7.83;;;;;;;6.78;77.17;99294.00;5063315;28;20681;-80
2021/04/22 03:22:04;;;;;;;8.40;7.60;;;;;;;6.81;76.96;99296.25;5047637;28;20227;-79
2021/04/22 03:25:05;;;;;;;8.47;7.37;;;;;;;6.86;77.28;99304.44;5033348;28;20251;-80
2021/04/22 03:28:05;;;;;;;8.37;7.57;;;;;;;6.86;77.38;99312.44;5029901;28;20275;-79
2021/04/22 03:30:52;;;;;;;8.30;7.50;;;;;;;6.84;77.39;99303.03;5043381;28;20533;-79
2021/04/22 03:34:02;;;;;;;8.90;8.10;;;;;;;6.86;77.00;99309.78;5017263;28;20604;-80
2021/04/22 03:36:56;;;;;;;9.20;7.73;;;;;;;6.86;77.31;99315.09;5052868;28;20224;-79
2021/04/22 03:39:44;;;;;;;7.93;7.13;;;;;;;6.82;77.42;99299.72;5084059;28;20217;-81
2021/04/22 03:42:44;;;;;;;8.60;7.77;;;;;;;6.78;77.34;99302.00;5051211;28;20229;-80
2021/04/22 03:45:40;;;;;;;8.50;7.63;;;;;;;6.83;77.80;99307.53;5051165;28;20289;-80
2021/04/22 03:48:35;;;;;;;9.60;7.80;;;;;;;6.80;77.18;99293.81;5051257;28;20314;-81
2021/04/22 03:51:23;;;;;;;8.90;7.43;;;;;;;6.88;77.58;99315.72;5038269;28;20643;-79
2021/04/22 03:54:13;;;;;;;8.17;7.37;;;;;;;6.87;77.58;99306.09;5053195;28;20218;-82
2021/04/22 03:57:07;;;;;;;8.17;7.37;;;;;;;6.97;77.09;99311.00;5073166;28;20216;-81
2021/04/22 04:00:31;;;;;;;8.17;7.37;;;;;;;6.98;77.34;99302.84;5064943;28;20221;-82
2021/04/22 04:03:26;;;;;;;8.30;7.47;;;;;;;6.98;76.70;99302.00;5065849;28;20537;-82
2021/04/22 04:06:21;;;;;;;8.43;7.53;;;;;;;7.04;76.66;99304.69;5045342;28;20217;-82
2021/04/22 04:09:14;;;;;;;9.00;7.60;;;;;;;7.17;76.69;99311.84;5094908;28;20216;-81
2021/04/22 04:12:14;;;;;;;8.20;7.40;;;;;;;7.25;76.24;99305.47;5104075;28;20546;-81
2021/04/22 04:15:08;;;;;;;8.33;7.53;;;;;;;7.37;76.32;99320.63;5074371;22;20229;-82
2021/04/22 04:17:58;;;;;;;8.40;7.60;;;;;;;7.39;75.34;99305.28;5017369;28;20246;-81
2021/04/22 04:20:50;;;;;;;8.40;7.53;;;;;;;7.48;75.42;99303.19;5009377;28;20292;-80
2021/04/22 04:23:41;;;;;;;8.07;7.27;;;;;;;7.57;75.46;99314.47;5037399;28;20231;-81
2021/04/22 04:26:58;;;;;;;8.47;7.67;;;;;;;7.74;74.93;99324.50;5034911;28;20297;-80
2021/04/22 04:29:51;;;;;;;11.47;8.17;;;;;;;7.82;75.31;99318.94;5064525;28;20231;-80
2021/04/22 04:32:46;;;;;;;8.77;7.87;;;;;;;7.95;74.13;99324.22;5044639;28;20264;-79
2021/04/22 04:35:40;;;;;;;8.83;8.03;;;;;;;7.94;74.29;99311.91;5052175;28;20239;-79
2021/04/22 04:38:33;;;;;;;8.83;7.93;;;;;;;8.16;73.60;99320.47;5037288;28;20251;-81
2021/04/22 04:41:49;;;;;;;8.40;7.53;;;;;;;8.42;73.56;99324.06;5048109;28;20239;-80
2021/04/22 04:44:45;;;;;;;8.70;7.83;;;;;;;8.59;71.91;99325.22;5055313;28;20220;-80
2021/04/22 04:47:38;;;;;;;8.80;7.77;;;;;;;8.68;72.21;99326.59;5035717;28;20226;-79
2021/04/22 04:50:45;;;;;;;7.30;6.60;;;;;;;8.87;71.96;99328.31;5033113;28;20270;-80
2021/04/22 04:53:48;;;;;;;8.57;7.77;;;;;;;9.07;71.25;99326.34;5034834;28;20253;-80
2021/04/22 04:57:01;;;;;;;9.33;7.80;;;;;;;9.18;70.95;99322.16;5034583;28;20252;-81
2021/04/22 05:00:18;;;;;;;10.07;8.20;;;;;;;9.30;70.42;99320.41;5084659;28;20248;-82
2021/04/22 05:03:26;;;;;;;8.57;7.77;;;;;;;9.52;70.04;99331.50;5085639;28;20231;-82
2021/04/22 05:06:29;;;;;;;9.43;8.37;;;;;;;9.70;68.88;99336.91;5069970;28;20240;-81
2021/04/22 05:09:24;;;;;;;9.77;7.90;;;;;;;9.86;68.31;99338.19;5041685;28;20238;-79
2021/04/22 05:12:19;;;;;;;8.77;7.97;;;;;;;10.03;67.36;99340.03;5011899;28;20245;-79
2021/04/22 05:15:15;;;;;;;9.33;8.43;;;;;;;10.24;67.05;99348.69;5029128;28;20245;-79
2021/04/22 05:18:08;;;;;;;8.80;7.90;;;;;;;10.46;65.79;99345.31;5042475;28;20229;-79
2021/04/22 05:21:24;;;;;;;8.97;8.03;;;;;;;10.85;65.53;99349.34;5009790;28;20229;-79
2021/04/22 05:24:24;;;;;;;9.90;8.20;;;;;;;11.13;64.84;99338.00;5062975;28;20239;-82
2021/04/22 05:27:19;;;;;;;11.27;8.10;;;;;;;11.44;62.97;99335.00;5068494;28;20225;-80
2021/04/22 05:30:29;;;;;;;8.63;7.77;;;;;;;11.74;61.60;99353.72;5054295;28;20232;-79
2021/04/22 05:33:27;;;;;;;8.47;7.57;;;;;;;11.97;61.15;99360.94;5054073;28;20221;-79
2021/04/22 05:36:26;;;;;;;8.67;7.73;;;;;;;12.15;60.16;99358.13;5050604;28;20235;-79
2021/04/22 05:39:38;;;;;;;8.93;8.13;;;;;;;12.25;61.18;99352.97;5057301;28;20278;-77
2021/04/22 05:43:05;;;;;;;10.03;8.50;;;;;;;12.11;60.89;99356.13;5120457;27;20576;-80
2021/04/22 05:46:05;;;;;;;9.33;8.53;;;;;;;12.41;60.27;99372.09;5108532;28;20219;-82
2021/04/22 05:49:01;;;;;;;8.67;7.77;;;;;;;12.59;60.48;99366.53;5103715;28;20537;-80
2021/04/22 05:52:00;;;;;;;13.23;10.33;;;;;;;12.79;59.95;99374.97;5102423;28;20244;-80
2021/04/22 05:54:55;;;;;;;11.17;9.87;;;;;;;12.98;58.88;99367.53;5124228;28;20219;-79
2021/04/22 05:57:51;;;;;;;12.60;9.83;;;;;;;13.10;58.93;99371.00;5124839;28;20215;-82
2021/04/22 06:00:44;;;;;;;27.13;23.23;;;;;;;13.27;58.39;99379.13;5103900;28;20233;-79
2021/04/22 06:04:05;;;;;;;15.57;12.50;;;;;;;13.38;58.11;99371.00;5104241;28;20215;-80
2021/04/22 06:07:06;;;;;;;10.70;9.57;;;;;;;13.48;57.14;99365.78;5106408;28;20192;-79
2021/04/22 06:10:28;;;;;;;8.77;7.97;;;;;;;13.73;56.41;99375.28;5104402;28;20223;-79
2021/04/22 06:13:41;;;;;;;9.70;8.50;;;;;;;13.69;56.59;99374.97;5103919;28;20247;-79
2021/04/22 06:16:34;;;;;;;8.40;7.50;;;;;;;13.82;54.55;99371.94;5103943;28;20488;-83
2021/04/22 06:19:26;;;;;;;8.47;7.67;;;;;;;13.92;54.10;99369.41;5101496;28;20229;-78
2021/04/22 06:22:13;;;;;;;7.80;7.10;;;;;;;14.12;53.86;99368.88;5097088;28;21035;-81
2021/04/22 06:24:47;;;;;;;7.90;7.10;;;;;;;14.28;53.06;99362.59;5093010;28;20320;-80
2021/04/22 06:27:21;;;;;;;7.37;6.67;;;;;;;14.47;51.77;99382.00;5091834;28;20278;-82
2021/04/22 06:29:56;;;;;;;6.50;5.90;;;;;;;14.76;50.63;99367.28;5075208;28;20313;-84
2021/04/22 06:32:51;;;;;;;6.57;5.90;;;;;;;15.24;49.77;99379.91;5092183;28;20248;-85
2021/04/22 06:35:53;;;;;;;8.00;6.47;;;;;;;15.68;48.24;99377.06;5093137;28;20277;-87
2021/04/22 06:38:29;;;;;;;6.10;5.43;;;;;;;15.89;46.76;99375.31;5091767;28;20236;-89
2021/04/22 06:41:12;;;;;;;6.23;5.23;;;;;;;16.34;45.83;99377.47;5089950;28;20230;-86
2021/04/22 06:43:57;;;;;;;5.43;4.93;;;;;;;16.82;45.19;99385.28;5075327;28;20221;-89
2021/04/22 06:46:39;;;;;;;7.07;6.47;;;;;;;17.00;44.18;99381.25;5075153;28;20239;-91
2021/04/22 06:49:24;;;;;;;6.37;4.90;;;;;;;17.48;43.13;99390.81;5091139;28;20253;-83
2021/04/22 06:52:08;;;;;;;5.37;4.87;;;;;;;17.85;41.34;99383.25;5071837;28;20219;-84
2021/04/22 06:54:40;;;;;;;5.20;4.70;;;;;;;17.90;40.11;99377.00;5079538;28;20225;-87
2021/04/22 06:57:14;;;;;;;5.90;4.77;;;;;;;17.86;40.98;99384.88;5087190;28;20560;-85
2021/04/22 06:59:42;;;;;;;4.50;4.10;;;;;;;17.68;40.49;99382.72;5066615;28;20238;-86
2021/04/22 07:02:10;;;;;;;4.93;4.30;;;;;;;17.36;40.61;99395.66;5076166;28;20308;-86
2021/04/22 07:04:37;;;;;;;5.90;5.30;;;;;;;17.29;40.33;99384.28;5077475;28;20251;-86
2021/04/22 07:07:07;;;;;;;5.07;4.60;;;;;;;17.27;40.69;99383.72;5076657;28;20662;-80
2021/04/22 07:09:35;;;;;;;5.27;4.77;;;;;;;17.28;41.21;99402.44;5046021;28;20591;-83
2021/04/22 07:12:03;;;;;;;5.60;4.70;;;;;;;17.34;41.74;99397.84;5097401;28;20224;-80
2021/04/22 07:14:30;;;;;;;5.70;5.20;;;;;;;17.57;41.18;99391.91;5071283;28;20263;-84
2021/04/22 07:17:00;;;;;;;5.60;5.00;;;;;;;17.85;40.68;99395.97;5043414;28;20232;-85
2021/04/22 07:19:27;;;;;;;5.47;4.97;;;;;;;18.07;40.67;99401.09;5080002;28;20227;-87
2021/04/22 07:21:55;;;;;;;6.03;4.90;;;;;;;17.93;40.03;99387.28;5063121;28;20523;-87
2021/04/22 07:24:22;;;;;;;6.53;5.03;;;;;;;18.22;39.67;99391.03;5062711;28;20235;-83
2021/04/22 07:26:50;;;;;;;5.67;5.10;;;;;;;18.19;39.54;99401.63;5079805;28;20269;-84
2021/04/22 07:29:17;;;;;;;5.73;5.17;;;;;;;18.20;39.06;99397.81;5079667;28;20564;-85
2021/04/22 07:31:44;;;;;;;5.90;5.30;;;;;;;18.00;39.00;99401.38;5097299;28;21173;-85
2021/04/22 07:34:11;;;;;;;5.50;5.00;;;;;;;17.99;39.37;99395.16;5095803;28;20224;-85
2021/04/22 07:36:39;;;;;;;5.10;4.70;;;;;;;18.21;39.18;99397.53;5097337;28;20228;-84
2021/04/22 07:39:06;;;;;;;6.00;5.40;;;;;;;18.26;39.42;99412.97;5062738;28;20305;-84
2021/04/22 07:41:42;;;;;;;6.37;5.77;;;;;;;18.46;38.06;99399.38;5095201;28;20315;-82
2021/04/22 07:44:25;;;;;;;6.50;5.47;;;;;;;18.57;37.87;99411.81;5049064;28;20225;-82
2021/04/22 07:47:03;;;;;;;5.40;5.00;;;;;;;18.52;38.94;99408.31;5096481;28;20273;-89
2021/04/22 07:49:53;;;;;;;6.43;5.77;;;;;;;18.36;39.16;99412.97;5081235;28;20246;-85
2021/04/22 07:52:24;;;;;;;6.27;5.43;;;;;;;18.26;39.08;99416.50;5096273;28;20239;-83
2021/04/22 07:54:56;;;;;;;5.77;5.20;;;;;;;18.48;39.52;99405.31;5062813;28;20231;-83
2021/04/22 07:57:31;;;;;;;6.30;5.80;;;;;;;18.51;39.21;99399.34;5095588;28;20581;-80
2021/04/22 08:00:09;;;;;;;6.93;6.17;;;;;;;18.31;38.65;99405.66;5095138;28;20281;-80
2021/04/22 08:02:45;;;;;;;5.93;5.43;;;;;;;18.49;39.05;99412.38;5082248;28;20690;-79
2021/04/22 08:05:16;;;;;;;5.93;5.40;;;;;;;18.19;38.64;99396.19;5092319;28;20220;-80
2021/04/22 08:08:12;;;;;;;6.97;5.70;;;;;;;18.39;39.00;99413.22;5059194;28;20310;-81
2021/04/22 08:10:52;;;;;;;6.10;5.50;;;;;;;18.38;38.30;99402.66;5031032;28;20220;-81
2021/04/22 08:13:35;;;;;;;6.13;5.53;;;;;;;17.94;38.46;99397.88;5032405;28;20297;-82
2021/04/22 08:16:10;;;;;;;6.30;5.70;;;;;;;18.13;38.84;99400.00;5041550;28;20224;-83
2021/04/22 08:18:55;;;;;;;6.20;5.60;;;;;;;18.48;39.25;99406.13;5057964;28;20224;-81
2021/04/22 08:21:32;;;;;;;6.30;5.70;;;;;;;18.59;39.36;99404.22;5022440;28;20622;-80
2021/04/22 08:24:06;;;;;;;6.10;5.50;;;;;;;18.77;39.18;99409.03;5051722;28;20678;-79
2021/04/22 08:26:40;;;;;;;6.40;5.20;;;;;;;18.59;36.75;99400.72;5073642;28;20701;-78
2021/04/22 08:29:08;;;;;;;5.40;4.93;;;;;;;18.40;37.18;99392.34;5057111;28;20229;-78
2021/04/22 08:31:38;;;;;;;6.77;4.97;;;;;;;18.39;37.31;99410.50;5037129;28;20225;-78
2021/04/22 08:34:13;;;;;;;5.77;5.27;;;;;;;18.31;37.71;99410.25;5038441;28;20664;-78
2021/04/22 08:36:56;;;;;;;5.83;5.17;;;;;;;18.14;37.77;99413.28;5056319;28;20241;-78
2021/04/22 08:39:35;;;;;;;8.20;5.00;;;;;;;18.13;37.52;99413.56;5050038;28;20221;-78
2021/04/22 08:42:10;;;;;;;5.40;4.90;;;;;;;18.29;37.75;99420.59;5040389;28;20278;-78
2021/04/22 08:44:51;;;;;;;5.67;5.03;;;;;;;18.41;36.47;99430.03;5048819;28;20536;-78
2021/04/22 08:47:33;;;;;;;5.40;4.90;;;;;;;18.49;36.86;99424.03;5051095;28;20236;-78
2021/04/22 08:50:20;;;;;;;5.40;4.90;;;;;;;18.78;37.21;99431.56;5053739;28;20533;-78
2021/04/22 08:52:56;;;;;;;5.30;4.87;;;;;;;18.65;36.88;99427.56;5035598;28;20225;-79
2021/04/22 08:55:31;;;;;;;4.97;4.47;;;;;;;18.56;36.56;99425.69;5074176;28;20227;-80
2021/04/22 08:58:06;;;;;;;4.87;4.30;;;;;;;18.90;36.34;99432.03;5056894;28;20231;-79
2021/04/22 09:00:54;;;;;;;7.23;5.27;;;;;;;18.80;36.44;99438.34;5073309;28;20224;-80
2021/04/22 09:03:28;;;;;;;6.17;5.57;;;;;;;18.76;37.04;99410.13;5057260;28;20660;-78
2021/04/22 09:06:01;;;;;;;5.97;5.27;;;;;;;19.21;36.03;99436.25;5071351;28;20232;-78
2021/04/22 09:08:50;;;;;;;7.17;5.57;;;;;;;19.47;35.90;99434.19;5056693;28;20644;-78
2021/04/22 09:11:27;;;;;;;7.40;5.60;;;;;;;19.94;34.46;99432.75;5053358;28;20220;-78
2021/04/22 09:14:16;;;;;;;5.80;5.20;;;;;;;19.90;35.13;99434.41;5054315;28;20228;-78
2021/04/22 09:16:51;;;;;;;8.43;5.67;;;;;;;19.70;35.71;99435.38;5049310;28;20531;-78
2021/04/22 09:19:27;;;;;;;6.10;5.60;;;;;;;20.11;35.27;99439.38;5059577;28;20247;-80
2021/04/22 09:21:59;;;;;;;6.50;5.90;;;;;;;20.20;35.89;99437.66;5055843;28;20224;-80
2021/04/22 09:24:34;;;;;;;5.70;5.20;;;;;;;19.86;36.29;99446.97;5069621;28;20225;-79
2021/04/22 09:27:17;;;;;;;5.27;4.87;;;;;;;20.12;34.61;99446.44;5047202;28;20225;-78
2021/04/22 09:29:54;;;;;;;6.00;5.50;;;;;;;19.72;34.80;99455.78;5071700;28;20221;-79
2021/04/22 09:32:23;;;;;;;6.03;5.40;;;;;;;19.79;35.68;99458.97;5041665;28;20257;-80
2021/04/22 09:34:54;;;;;;;5.93;5.43;;;;;;;19.57;35.55;99460.50;5036913;28;20316;-78
2021/04/22 09:37:23;;;;;;;6.50;5.87;;;;;;;19.24;36.88;99441.09;5056204;28;20286;-79
2021/04/22 09:39:51;;;;;;;7.17;6.57;;;;;;;18.40;39.67;99462.84;5056690;28;20228;-78
2021/04/22 09:42:19;;;;;;;7.30;6.60;;;;;;;18.05;41.35;99466.44;5068733;28;20621;-79
2021/04/22 09:44:49;;;;;;;6.40;5.80;;;;;;;17.47;42.67;99452.28;5051024;28;20249;-78
2021/04/22 09:47:24;;;;;;;6.00;5.50;;;;;;;17.60;42.63;99451.78;5044077;28;20235;-79
2021/04/22 09:49:57;;;;;;;7.80;6.77;;;;;;;17.83;41.68;99464.00;5041003;28;20237;-78
2021/04/22 09:52:41;;;;;;;7.07;6.47;;;;;;;17.64;42.90;99483.78;5056828;28;20237;-79
2021/04/22 09:55:13;;;;;;;7.50;6.80;;;;;;;17.82;43.19;99475.13;5056662;28;20717;-79
2021/04/22 09:57:42;;;;;;;8.07;7.27;;;;;;;17.92;42.52;99484.03;5069739;28;20328;-79
2021/04/22 10:00:14;;;;;;;8.33;7.23;;;;;;;17.58;42.84;99480.22;5036668;28;20234;-78
2021/04/22 10:02:55;;;;;;;7.83;7.10;;;;;;;17.63;42.99;99469.41;5066740;28;20762;-79
2021/04/22 10:05:26;;;;;;;8.87;7.40;;;;;;;17.41;43.73;99482.31;5020650;28;20225;-78
2021/04/22 10:08:07;;;;;;;7.67;6.57;;;;;;;17.07;45.10;99485.50;5064676;28;20227;-78
2021/04/22 10:10:36;;;;;;;7.63;6.87;;;;;;;17.16;44.96;99485.78;5052460;28;20226;-79
2021/04/22 10:13:09;;;;;;;8.27;7.47;;;;;;;17.07;44.27;99490.09;5036932;28;20239;-78
2021/04/22 10:15:37;;;;;;;7.60;6.90;;;;;;;16.93;44.79;99478.13;5037919;28;20248;-78
2021/04/22 10:18:07;;;;;;;7.53;6.83;;;;;;;16.74;44.94;99483.19;5056146;28;20272;-78
2021/04/22 10:20:37;;;;;;;8.30;7.40;;;;;;;16.77;44.99;99493.47;5040554;28;20327;-80
2021/04/22 10:23:07;;;;;;;9.50;8.50;;;;;;;16.39;46.73;99512.69;5056810;28;20235;-78
2021/04/22 10:25:39;;;;;;;10.10;9.10;;;;;;;15.66;48.65;99501.56;5057268;28;20795;-78
2021/04/22 10:28:14;;;;;;;10.43;9.40;;;;;;;15.31;49.72;99511.94;5038382;28;20230;-80
2021/04/22 10:30:44;;;;;;;9.93;8.87;;;;;;;15.19;49.64;99525.59;5057366;28;20239;-80
2021/04/22 10:33:12;;;;;;;10.30;9.27;;;;;;;14.51;51.95;99518.75;5060918;28;20225;-80
2021/04/22 10:35:41;;;;;;;9.80;8.83;;;;;;;14.59;51.82;99522.09;5060572;28;20232;-80
2021/04/22 10:38:10;;;;;;;10.77;9.80;;;;;;;14.17;55.05;99529.78;5056673;28;20303;-80
2021/04/22 10:40:40;;;;;;;12.10;10.90;;;;;;;13.66;57.53;99548.59;5057317;28;20667;-80
2021/04/22 10:43:09;;;;;;;12.33;11.03;;;;;;;13.60;59.70;99570.25;5065110;28;20220;-80
2021/04/22 10:45:39;;;;;;;13.37;11.97;;;;;;;12.73;65.76;99578.41;5060847;28;20345;-80
2021/04/22 10:48:07;;;;;;;14.47;13.07;;;;;;;11.71;67.06;99590.31;5058731;28;20224;-80
2021/04/22 10:50:47;;;;;;;15.30;13.70;;;;;;;11.54;69.92;99578.59;5059269;28;20244;-80
2021/04/22 10:53:30;;;;;;;16.17;14.47;;;;;;;11.39;70.06;99578.97;5048651;28;20252;-80
2021/04/22 10:56:08;;;;;;;17.17;14.87;;;;;;;11.22;72.17;99563.72;5058688;28;20534;-80
2021/04/22 10:58:47;;;;;;;17.70;15.83;;;;;;;11.47;73.08;99588.59;5058706;28;20668;-80
2021/04/22 11:01:35;;;;;;;17.67;14.80;;;;;;;11.47;71.17;99599.34;5062366;28;20216;-80
2021/04/22 11:04:10;;;;;;;15.53;13.87;;;;;;;11.52;71.44;99602.16;5057962;28;20227;-80
2021/04/22 11:06:40;;;;;;;14.87;13.47;;;;;;;11.57;71.46;99601.47;5036138;28;20225;-80
2021/04/22 11:09:12;;;;;;;15.03;13.33;;;;;;;11.19;70.98;99607.94;5067285;28;20228;-80
2021/04/22 11:11:55;;;;;;;16.40;12.77;;;;;;;11.23;69.84;99610.97;5039457;28;20521;-80
2021/04/22 11:14:43;;;;;;;14.00;12.60;;;;;;;11.46;70.17;99611.91;5053831;28;20241;-80
2021/04/22 11:17:23;;;;;;;15.83;12.80;;;;;;;11.77;68.78;99612.78;5056550;28;20240;-80
2021/04/22 11:19:57;;;;;;;14.57;12.07;;;;;;;12.30;67.25;99610.97;5061863;28;20228;-80
2021/04/22 11:22:27;;;;;;;13.03;11.07;;;;;;;12.65;64.84;99602.91;5058775;28;20502;-79
2021/04/22 11:25:06;;;;;;;13.60;11.50;;;;;;;12.39;64.76;99608.75;5075903;28;20228;-80
2021/04/22 11:27:54;;;;;;;13.33;11.17;;;;;;;12.21;65.34;99601.59;5060789;28;20233;-80
2021/04/22 11:30:31;;;;;;;13.57;11.23;;;;;;;12.03;65.52;99615.09;5055788;28;20635;-80
2021/04/22 11:33:05;;;;;;;13.87;11.50;;;;;;;11.72;67.15;99607.25;5040880;28;20232;-79
2021/04/22 11:35:53;;;;;;;13.10;11.03;;;;;;;11.73;68.33;99614.28;5061072;28;20226;-80
2021/04/22 11:38:24;;;;;;;12.40;11.10;;;;;;;11.51;68.17;99599.69;5060201;28;20232;-80
2021/04/22 11:40:55;;;;;;;12.20;10.93;;;;;;;11.64;69.46;99573.50;5046594;28;20278;-80
2021/04/22 11:43:31;;;;;;;14.83;11.87;;;;;;;12.00;70.05;99591.38;5050096;28;20217;-80
2021/04/22 11:46:02;;;;;;;13.63;12.23;;;;;;;12.61;68.46;99592.88;5064053;28;20247;-79
2021/04/22 11:48:54;;;;;;;15.23;11.40;;;;;;;12.57;65.96;99597.06;5076069;28;20507;-80
2021/04/22 11:51:34;;;;;;;13.13;11.73;;;;;;;13.03;66.17;99593.53;5079206;28;20243;-80
2021/04/22 11:54:15;;;;;;;17.60;12.13;;;;;;;13.92;64.43;99594.81;5060239;28;20655;-80
2021/04/22 11:56:55;;;;;;;13.60;11.37;;;;;;;14.17;63.10;99589.88;5062792;28;20636;-80
2021/04/22 11:59:35;;;;;;;11.90;10.50;;;;;;;14.13;60.82;99587.91;5062649;28;20597;-81
2021/04/22 12:02:18;;;;;;;11.37;9.90;;;;;;;14.26;60.39;99587.59;5083774;28;20556;-81
2021/04/22 12:04:53;;;;;;;12.33;11.13;;;;;;;14.30;60.53;99583.34;5079471;28;20606;-79
2021/04/22 12:07:28;;;;;;;11.93;10.57;;;;;;;14.60;59.70;99575.78;5065175;28;20255;-80
2021/04/22 12:09:59;;;;;;;12.40;9.90;;;;;;;14.27;56.79;99567.66;5072270;28;20308;-79
2021/04/22 12:12:35;;;;;;;11.13;9.90;;;;;;;14.88;56.55;99566.75;5060006;28;20303;-81
2021/04/22 12:15:10;;;;;;;10.50;9.50;;;;;;;14.74;54.63;99574.38;5068287;28;20251;-80
2021/04/22 12:17:42;;;;;;;11.10;8.70;;;;;;;14.77;55.22;99570.34;5079009;28;20617;-80
2021/04/22 12:20:21;;;;;;;10.63;9.47;;;;;;;15.01;55.07;99554.75;5085150;28;20257;-80
2021/04/22 12:22:52;;;;;;;10.37;9.30;;;;;;;15.32;56.32;99568.38;5078698;28;20530;-80
2021/04/22 12:25:25;;;;;;;9.83;8.73;;;;;;;15.79;52.42;99576.78;5062831;28;20288;-81
2021/04/22 12:28:05;;;;;;;10.13;9.07;;;;;;;15.78;52.18;99561.63;5064603;28;20240;-81
2021/04/22 12:30:39;;;;;;;10.63;9.40;;;;;;;16.27;52.86;99575.88;5078512;28;20232;-80
2021/04/22 12:33:10;;;;;;;10.07;9.17;;;;;;;15.25;53.86;99583.97;5062729;28;20248;-81
2021/04/22 12:35:44;;;;;;;10.50;9.40;;;;;;;15.81;52.58;99581.94;5061846;28;20227;-80
2021/04/22 12:38:22;;;;;;;9.93;9.03;;;;;;;15.56;54.48;99585.16;5077567;28;20225;-80
2021/04/22 12:40:58;;;;;;;9.53;8.67;;;;;;;15.11;54.42;99590.78;5060755;28;20240;-81
2021/04/22 12:43:29;;;;;;;9.87;8.87;;;;;;;14.66;54.37;99590.13;5060585;28;20243;-79
2021/04/22 12:46:04;;;;;;;9.50;8.60;;;;;;;14.26;55.25;99601.88;5050494;28;20279;-80
2021/04/22 12:48:32;;;;;;;9.43;8.43;;;;;;;14.40;54.98;99597.84;5041610;28;20244;-80
2021/04/22 12:50:59;;;;;;;8.73;7.87;;;;;;;13.84;55.94;99600.59;5043326;28;20286;-81
2021/04/22 12:53:36;;;;;;;8.00;7.30;;;;;;;13.55;56.20;99614.03;5075944;28;20224;-80
2021/04/22 12:56:12;;;;;;;7.97;7.17;;;;;;;13.42;56.59;99610.81;5056749;28;20251;-80
2021/04/22 12:58:51;;;;;;;9.40;7.23;;;;;;;13.02;58.00;99592.72;5040804;28;20232;-81
2021/04/22 13:01:32;;;;;;;9.03;7.43;;;;;;;12.55;59.54;99581.16;5042351;28;20624;-80
2021/04/22 13:04:02;;;;;;;8.90;8.10;;;;;;;12.36;60.65;99604.63;5072020;28;20339;-80